AirNav   Duncan Aviation - Near you to keep you flying
 
 1546 users online  

7OK8 Jim Pettijohn Memorial Airport
Marlow, Oklahoma, USA

GOING TO MARLOW?


FAA INFORMATION EFFECTIVE 03 NOVEMBER 2022

Location

FAA Identifier: 7OK8
Lat/Long: 34-39-41.5800N 098-06-10.0600W
34-39.693000N 098-06.167667W
34.6615500,-98.1027944
(estimated)
Elevation: 1222 ft. / 372 m (estimated)
From city: 8 miles W of MARLOW, OK
Time zone: UTC -6 (UTC -5 during Daylight Saving Time)
Zip code: 73055

Airport Operations

Airport use: Private use. Permission required prior to landing
Activation date: 05/2018
Control tower: no
ARTCC: FORT WORTH CENTER
FSS: MC ALESTER FLIGHT SERVICE STATION
Attendance: 
Segmented circle: no

Airport Communications

WX AWOS-3 at DUC (13 nm SE): 119.075 (580-252-4547)
WX ASOS at LAW (16 nm W): 120.75 (580-581-1351)

Nearby radio navigation aids

VOR radial/distance  VOR name  Freq  Var
LAWr048/18.3LAWTON VOR/DME109.4009E

Airport Services

Runway Information

Runway 18/36

Dimensions: 1320 x 80 ft. / 402 x 24 m
Surface: turf, in fair condition
RUNWAY 18  RUNWAY 36
Traffic pattern: leftleft

Airport Ownership and Management from official FAA records

Ownership: Privately-owned
Owner: JOHNNY & NAOMI PETTIJOHN
162188 7 MILE ROAD
MARLOW, OK 73055
Phone 580-658-6067
Manager: JOHNNY & NAOMI PETTIJOHN
162188 7 MILE ROAD
MARLOW, OK 73055
Phone 580-658-6067

Additional Remarks

FOR CD CTC FORT WORTH ARTCC AT 817-858-7584.

Instrument Procedures

There are no published instrument procedures at 7OK8.

Some nearby airports with instrument procedures:

KDUC - Halliburton Field Airport (13 nm SE)
KFSI - Henry Post Army Airfield (Fort Sill) (15 nm W)
KLAW - Lawton-Fort Sill Regional Airport (16 nm W)
KCHK - Chickasha Municipal Airport (27 nm N)
1K4 - David Jay Perry Airport (43 nm NE)
 
Loc | Ops | Rwys | IFR | FBO | Links
Com | Nav | Svcs | Stats | Notes
Aerial photo
No photo
 
Airport distance calculator
Flying to Jim Pettijohn Memorial Airport? Find the distance to fly.

From to 7OK8

Sunrise and sunset
Times for 29-Nov-2022
 Local
(UTC-6)
 Zulu
(UTC)
Morning civil twilight06:5312:53
Sunrise07:2113:21
Sunset17:2123:21
Evening civil twilight17:4923:49

Current date and time
Zulu (UTC)  29-Nov-2022 19:04:43
Local (UTC-6)  29-Nov-2022 13:04:43
 
METAR
KDUC 
13nm SE 
291855Z AUTO 28015G18KT 10SM CLR 21/07 A2969 RMK AO2 T02080068
KFSI 
15nm W 
291855Z AUTO 30012KT 10SM CLR 20/04 A2965 RMK AO2 SLP036 T02030039
KLAW 
17nm SW 
291853Z 27012G16KT 10SM CLR 21/06 A2968 RMK AO2 SLP044 T02060056
TAF
KLAW 
17nm SW 
291726Z 2918/3018 22012G19KT P6SM SKC FM291900 26012G19KT P6SM SKC FM292100 34024G32KT P6SM SKC FM300800 36013KT P6SM SKC FM301200 01007KT P6SM SKC
NOTAMs
Click for the latest NOTAMs
NOTAMs are issued by the DoD/FAA and will open in a separate window not controlled by AirNav.

 

 
 

Would you like to see your business listed on this page?

 If your business provides an interesting product or service to pilots, flight crews, aircraft, or users of the Jim Pettijohn Memorial Airport, you should consider listing it here.  To start the listing process, click on the button below
 
Add a business
 

Other Pages about Jim Pettijohn Memorial Airport

Update a link
 
Copyright © AirNav, LLC. All rights reserved. Privacy Policy  Contact